Athboy, South Dakota
Current Conditions -  °F | °C
As of 6:53 PM on Saturday 20 Dec 2014 (Local Time) from KHEI Reporting Station
Clear Clear  
Wind Chill: 28°   Ceiling: Unl
Heat Index: 28°   Visibility: 10mi
Dew Point: 23°   Wind: 0mph
Humidity: 81%   Direction: NA
Pressure: 29.82"   Gusts: NA
Location:  45.2919°N, 102.298°W
Report Text: KHEI 210153Z AUTO 00000KT 10SM CLR M02/M05 A2982 RMK AO2 SLP125 T10221050
Loading
Personal Weather Stations






























Interactive Weather Map New forecast layout! Learn more

10-Day Weather Forecast

Advertisements
Track Severe Weather on mobile